createdAt,value
2018-03-20T00:02:04.718Z,22.85
2018-03-20T00:04:32.350Z,24.63
2018-03-20T00:06:59.947Z,26.90
2018-03-20T00:09:27.584Z,24.30
2018-03-20T00:11:55.184Z,26.73
2018-03-20T00:14:22.782Z,23.50
2018-03-20T00:16:50.424Z,25.55
2018-03-20T00:19:18.067Z,26.98
2018-03-20T00:21:45.710Z,28.87
2018-03-20T00:24:13.351Z,24.30
2018-03-20T00:26:40.944Z,25.17
2018-03-20T00:29:08.539Z,27.40
2018-03-20T00:31:36.162Z,29.30
2018-03-20T00:34:03.774Z,24.20
2018-03-20T00:36:31.468Z,29.50
2018-03-20T00:38:59.132Z,29.10
2018-03-20T00:41:26.743Z,30.85
2018-03-20T00:43:54.387Z,31.30
2018-03-20T00:46:21.975Z,31.23
2018-03-20T00:48:49.567Z,26.13
2018-03-20T00:51:17.203Z,27.55
2018-03-20T00:53:44.794Z,28.03
2018-03-20T00:56:12.414Z,29.50
2018-03-20T00:58:40.036Z,29.20
2018-03-20T01:01:07.647Z,29.67
2018-03-20T01:03:35.315Z,31.40
2018-03-20T01:06:02.906Z,26.17
2018-03-20T01:08:30.539Z,34.88
2018-03-20T01:10:58.138Z,37.40
2018-03-20T01:13:25.723Z,36.53
2018-03-20T01:15:53.342Z,41.90
2018-03-20T01:18:20.926Z,44.20
2018-03-20T01:20:48.543Z,43.97
2018-03-20T01:23:16.158Z,39.93
2018-03-20T01:25:43.766Z,42.37
2018-03-20T01:28:11.375Z,33.97
2018-03-20T01:30:39.007Z,34.57
2018-03-20T01:33:06.599Z,33.70
2018-03-20T01:35:34.182Z,38.77
2018-03-20T01:38:01.822Z,38.13
2018-03-20T01:40:29.427Z,37.88
2018-03-20T01:42:57.010Z,38.50
2018-03-20T01:45:24.655Z,40.85
2018-03-20T01:47:52.255Z,37.83
2018-03-20T01:50:19.864Z,38.43
2018-03-20T01:52:47.517Z,37.10
2018-03-20T01:55:15.122Z,37.07
2018-03-20T01:57:42.707Z,32.13
2018-03-20T02:00:10.335Z,28.23
2018-03-20T02:02:37.931Z,28.05
2018-03-20T02:05:05.551Z,30.27
2018-03-20T02:07:33.134Z,36.53
2018-03-20T02:10:00.735Z,30.33
2018-03-20T02:12:28.332Z,35.53
2018-03-20T02:14:55.910Z,34.83
2018-03-20T02:17:23.566Z,22.00
2018-03-20T02:19:51.152Z,27.63
2018-03-20T02:22:18.766Z,26.00
2018-03-20T02:24:46.386Z,22.47
2018-03-20T02:27:14.014Z,25.40
2018-03-20T02:29:41.599Z,24.23
2018-03-20T02:32:09.219Z,20.50
2018-03-20T02:34:36.805Z,17.33
2018-03-20T02:37:04.424Z,17.77
2018-03-20T02:39:32.067Z,17.33
2018-03-20T02:41:59.683Z,15.43
2018-03-20T02:44:27.344Z,19.07
2018-03-20T02:46:54.942Z,15.73
2018-03-20T02:49:22.521Z,12.70
2018-03-20T02:51:50.175Z,12.80
2018-03-20T02:54:17.755Z,14.27
2018-03-20T02:56:45.343Z,13.23
2018-03-20T02:59:13.059Z,17.58
2018-03-20T03:01:40.654Z,16.30
2018-03-20T03:04:08.283Z,15.07
2018-03-20T03:06:36.018Z,15.98
2018-03-20T03:09:03.646Z,17.73
2018-03-20T03:11:31.238Z,14.87
2018-03-20T03:13:58.838Z,16.37
2018-03-20T03:16:26.423Z,16.50
2018-03-20T03:18:54.062Z,18.70
2018-03-20T03:21:21.665Z,20.25
2018-03-20T03:23:49.285Z,18.33
2018-03-20T03:26:16.894Z,18.27
2018-03-20T03:28:44.543Z,14.82
2018-03-20T03:31:12.187Z,15.70
2018-03-20T03:33:39.783Z,15.25
2018-03-20T03:36:07.403Z,16.95
2018-03-20T03:38:35.039Z,19.27
2018-03-20T03:41:02.666Z,24.23
2018-03-20T03:43:30.355Z,26.40
2018-03-20T03:45:58.051Z,25.80
2018-03-20T03:48:25.695Z,33.08
2018-03-20T03:50:53.283Z,36.67
2018-03-20T03:53:20.920Z,35.20
2018-03-20T03:55:48.511Z,32.38
2018-03-20T03:58:16.105Z,39.85
2018-03-20T04:00:43.759Z,40.78
2018-03-20T04:03:11.346Z,37.25
2018-03-20T04:05:39.224Z,30.45
2018-03-20T04:08:06.847Z,26.95
2018-03-20T04:10:34.449Z,21.85
2018-03-20T04:13:02.094Z,28.10
2018-03-20T04:15:29.755Z,23.10
2018-03-20T04:17:57.378Z,20.48
2018-03-20T04:20:25.096Z,20.75
2018-03-20T04:22:52.835Z,21.05
2018-03-20T04:25:20.432Z,19.60
2018-03-20T04:27:48.063Z,22.08
2018-03-20T04:30:15.717Z,18.80
2018-03-20T04:32:43.303Z,20.15
2018-03-20T04:35:10.927Z,21.10
2018-03-20T04:37:38.514Z,15.48
2018-03-20T04:40:06.157Z,16.42
2018-03-20T04:42:33.770Z,13.98
2018-03-20T04:45:01.475Z,13.52
2018-03-20T04:47:29.107Z,13.90
2018-03-20T04:49:56.697Z,14.23
2018-03-20T04:52:24.382Z,15.25
2018-03-20T04:54:51.979Z,17.20
2018-03-20T04:57:19.614Z,16.95
2018-03-20T04:59:47.263Z,17.95
2018-03-20T05:02:14.905Z,16.37
2018-03-20T05:04:42.504Z,16.90
2018-03-20T05:07:10.154Z,14.25
2018-03-20T05:09:37.767Z,18.37
2018-03-20T05:12:05.439Z,18.42
2018-03-20T05:14:33.063Z,20.05
2018-03-20T05:17:00.695Z,27.58
2018-03-20T05:22:49.155Z,24.65
2018-03-20T05:25:16.800Z,29.98
2018-03-20T05:27:44.446Z,31.87
2018-03-20T05:30:12.162Z,29.48
2018-03-20T05:32:39.798Z,35.10
2018-03-20T05:35:07.436Z,28.38
2018-03-20T05:37:35.127Z,27.02
2018-03-20T05:40:02.790Z,23.77
2018-03-20T05:42:30.427Z,22.05
2018-03-20T05:44:58.055Z,28.02
2018-03-20T05:47:28.126Z,18.05
2018-03-20T05:50:01.366Z,17.35
2018-03-20T05:52:29.919Z,14.82
2018-03-20T05:54:57.547Z,11.70
2018-03-20T05:57:25.195Z,9.68
2018-03-20T05:59:52.799Z,12.70
2018-03-20T06:02:20.433Z,8.82
2018-03-20T06:04:48.067Z,10.57
2018-03-20T06:07:15.814Z,10.77
2018-03-20T06:09:43.414Z,11.77
2018-03-20T06:18:54.080Z,17.92
2018-03-20T06:21:21.662Z,12.10
2018-03-20T06:23:49.243Z,9.85
2018-03-20T06:26:16.886Z,10.77
2018-03-20T06:28:44.470Z,14.15
2018-03-20T06:31:12.095Z,12.00
2018-03-20T06:33:39.723Z,10.27
2018-03-20T06:36:07.322Z,8.75
2018-03-20T06:38:34.911Z,10.95
2018-03-20T06:41:02.590Z,8.93
2018-03-20T06:43:30.187Z,9.25
2018-03-20T06:45:57.858Z,9.38
2018-03-20T06:48:25.441Z,8.13
2018-03-20T06:50:53.608Z,12.50
2018-03-20T06:53:21.262Z,12.13
2018-03-20T06:55:50.096Z,27.50
2018-03-20T06:58:17.715Z,35.20
2018-03-20T07:00:45.478Z,25.00
2018-03-20T07:03:13.067Z,12.87
2018-03-20T07:05:40.687Z,10.40
2018-03-20T07:08:08.301Z,12.30
2018-03-20T07:10:35.895Z,13.77
2018-03-20T07:13:03.595Z,15.60
2018-03-20T07:15:31.191Z,12.93
2018-03-20T07:17:58.779Z,13.83
2018-03-20T07:20:26.438Z,11.00
2018-03-20T07:22:54.046Z,12.90
2018-03-20T07:25:21.666Z,13.00
2018-03-20T07:27:49.243Z,9.40
2018-03-20T07:30:16.823Z,10.47
2018-03-20T07:32:44.482Z,7.47
2018-03-20T07:35:12.235Z,8.90
2018-03-20T07:37:39.959Z,9.73
2018-03-20T07:40:07.671Z,6.23
2018-03-20T07:42:35.286Z,7.47
2018-03-20T07:45:02.884Z,7.20
2018-03-20T07:47:30.506Z,6.57
2018-03-20T07:49:58.102Z,4.30
2018-03-20T07:52:25.864Z,8.03
2018-03-20T07:54:53.489Z,5.67
2018-03-20T07:57:21.265Z,5.83
2018-03-20T07:59:48.927Z,6.77
2018-03-20T08:02:16.543Z,5.00
2018-03-20T08:04:44.148Z,4.37
2018-03-20T08:07:11.766Z,8.17
2018-03-20T08:09:39.387Z,6.33
2018-03-20T08:12:07.010Z,5.07
2018-03-20T08:14:34.608Z,5.03
2018-03-20T08:17:02.259Z,4.37
2018-03-20T08:19:29.984Z,5.17
2018-03-20T08:21:57.653Z,4.37
2018-03-20T08:24:25.275Z,4.50
2018-03-20T08:26:52.921Z,3.57
2018-03-20T08:29:20.597Z,3.47
2018-03-20T08:31:48.219Z,3.53
2018-03-20T08:34:15.795Z,3.93
2018-03-20T08:36:43.477Z,4.10
2018-03-20T08:39:11.078Z,4.10
2018-03-20T08:41:38.671Z,3.63
2018-03-20T08:44:06.304Z,4.70
2018-03-20T08:46:33.893Z,5.33
2018-03-20T08:49:01.515Z,5.50
2018-03-20T08:51:29.348Z,3.47
2018-03-20T08:53:56.968Z,4.60
2018-03-20T08:56:24.603Z,4.87
2018-03-20T08:58:52.393Z,3.93
2018-03-20T09:01:20.004Z,3.40
2018-03-20T09:03:47.639Z,4.10
2018-03-20T09:06:15.231Z,4.50
2018-03-20T09:08:43.629Z,4.80
2018-03-20T09:11:11.422Z,4.20
2018-03-20T09:13:39.155Z,3.37
2018-03-20T09:16:06.791Z,8.27
2018-03-20T09:18:34.382Z,6.43
2018-03-20T09:21:01.968Z,12.03
2018-03-20T09:23:29.587Z,3.83
2018-03-20T09:25:57.199Z,7.13
2018-03-20T09:28:24.791Z,3.80
2018-03-20T09:30:52.477Z,9.97
2018-03-20T09:33:20.067Z,7.03
2018-03-20T09:35:47.684Z,5.10
2018-03-20T09:38:15.271Z,9.97
2018-03-20T09:40:42.859Z,9.53
2018-03-20T09:43:10.486Z,7.50
2018-03-20T09:45:38.074Z,3.93
2018-03-20T09:48:05.685Z,7.83
2018-03-20T09:50:33.431Z,3.77
2018-03-20T09:53:01.025Z,7.70
2018-03-20T09:55:28.619Z,9.43
2018-03-20T09:57:56.339Z,5.40
2018-03-20T10:00:23.935Z,7.17
2018-03-20T10:02:51.554Z,5.73
2018-03-20T10:05:19.172Z,4.80
2018-03-20T10:07:46.795Z,3.90
2018-03-20T10:10:14.425Z,6.53
2018-03-20T10:12:42.012Z,8.53
2018-03-20T10:15:09.640Z,7.83
2018-03-20T10:17:37.291Z,4.03
2018-03-20T10:20:04.907Z,4.57
2018-03-20T10:22:32.531Z,3.27
2018-03-20T10:25:00.164Z,3.30
2018-03-20T10:27:27.739Z,6.60
2018-03-20T10:29:55.403Z,5.47
2018-03-20T10:32:22.987Z,2.80
2018-03-20T10:34:50.605Z,6.23
2018-03-20T10:37:18.214Z,3.83
2018-03-20T10:39:45.803Z,2.97
2018-03-20T10:42:13.427Z,4.53
2018-03-20T10:44:41.033Z,36.83
2018-03-20T10:47:08.654Z,10.43
2018-03-20T10:49:36.405Z,5.27
2018-03-20T10:52:03.987Z,4.33
2018-03-20T10:54:31.584Z,9.43
2018-03-20T10:56:59.219Z,3.33
2018-03-20T10:59:26.847Z,4.70
2018-03-20T11:01:55.167Z,6.13
2018-03-20T11:04:22.791Z,8.53
2018-03-20T11:06:50.415Z,8.23
2018-03-20T11:09:18.027Z,3.13
2018-03-20T11:11:45.647Z,7.57
2018-03-20T11:14:13.248Z,4.57
2018-03-20T11:16:40.847Z,4.63
2018-03-20T11:19:08.515Z,8.77
2018-03-20T11:21:36.097Z,6.13
2018-03-20T11:24:03.711Z,13.40
2018-03-20T11:26:31.367Z,3.00
2018-03-20T11:28:58.952Z,3.77
2018-03-20T11:31:26.535Z,3.30
2018-03-20T11:33:54.274Z,4.90
2018-03-20T11:36:21.914Z,8.30
2018-03-20T11:38:49.515Z,5.63
2018-03-20T11:41:17.171Z,4.97
2018-03-20T11:43:44.753Z,5.00
2018-03-20T11:46:12.359Z,4.37
2018-03-20T11:48:39.975Z,8.47
2018-03-20T11:51:07.558Z,3.57
2018-03-20T11:53:35.152Z,5.40
2018-03-20T11:56:02.796Z,11.80
2018-03-20T11:58:30.379Z,3.97
2018-03-20T12:00:57.975Z,18.03
2018-03-20T12:03:25.644Z,5.10
2018-03-20T12:05:53.392Z,5.03
2018-03-20T12:08:32.782Z,8.70
2018-03-20T12:11:00.383Z,8.87
2018-03-20T12:13:27.971Z,5.13
2018-03-20T12:15:55.594Z,6.93
2018-03-20T12:18:23.174Z,5.27
2018-03-20T12:20:50.786Z,5.30
2018-03-20T12:23:18.404Z,14.47
2018-03-20T12:25:45.983Z,4.97
2018-03-20T12:28:13.568Z,7.97
2018-03-20T12:30:41.187Z,7.40
2018-03-20T12:33:08.776Z,8.67
2018-03-20T12:35:36.363Z,12.53
2018-03-20T12:38:04.009Z,12.90
2018-03-20T12:40:31.619Z,15.77
2018-03-20T12:42:59.203Z,22.80
2018-03-20T12:45:26.782Z,7.10
2018-03-20T12:47:54.375Z,16.83
2018-03-20T12:50:22.001Z,6.77
2018-03-20T12:52:49.611Z,4.83
2018-03-20T12:55:17.206Z,9.43
2018-03-20T12:57:44.796Z,7.13
2018-03-20T13:00:12.387Z,15.30
2018-03-20T13:02:40.020Z,4.70
2018-03-20T13:05:07.672Z,9.10
2018-03-20T13:07:35.251Z,6.27
2018-03-20T13:10:02.872Z,5.47
2018-03-20T13:12:30.483Z,8.53
2018-03-20T13:14:58.146Z,7.53
2018-03-20T13:17:25.747Z,6.73
2018-03-20T13:19:53.339Z,5.63
2018-03-20T13:22:21.022Z,6.07
2018-03-20T13:24:48.634Z,6.13
2018-03-20T13:27:16.227Z,11.27
2018-03-20T13:29:43.823Z,4.33
2018-03-20T13:32:11.416Z,4.13
2018-03-20T13:34:39.078Z,4.97
2018-03-20T13:37:06.695Z,4.30
2018-03-20T13:39:34.275Z,8.37
2018-03-20T13:42:01.863Z,4.70
2018-03-20T13:44:29.466Z,6.90
2018-03-20T13:46:57.091Z,4.40
2018-03-20T13:49:24.676Z,5.70
2018-03-20T13:51:52.279Z,7.60
2018-03-20T13:54:19.904Z,3.87
2018-03-20T13:56:47.488Z,5.63
2018-03-20T13:59:15.086Z,9.37
2018-03-20T14:01:42.687Z,4.17
2018-03-20T14:04:10.276Z,4.17
2018-03-20T14:06:37.907Z,3.30
2018-03-20T14:09:05.496Z,13.07
2018-03-20T14:11:33.111Z,7.60
2018-03-20T14:14:00.732Z,7.20
2018-03-20T14:16:28.330Z,3.93
2018-03-20T14:18:55.978Z,21.43
2018-03-20T14:21:23.564Z,20.07
2018-03-20T14:23:51.147Z,9.63
2018-03-20T14:26:18.762Z,6.10
2018-03-20T14:28:46.366Z,7.20
2018-03-20T14:31:13.986Z,8.03
2018-03-20T14:33:41.579Z,4.80
2018-03-20T14:36:09.166Z,7.70
2018-03-20T14:38:36.802Z,5.30
2018-03-20T14:41:04.384Z,6.33
2018-03-20T14:43:32.011Z,9.60
2018-03-20T14:45:59.682Z,10.33
2018-03-20T14:48:27.298Z,5.67
2018-03-20T14:50:54.910Z,9.27
2018-03-20T14:53:22.496Z,7.00
2018-03-20T14:55:50.083Z,11.03
2018-03-20T14:58:17.706Z,7.73
2018-03-20T15:00:45.318Z,4.70
2018-03-20T15:03:12.930Z,9.20
2018-03-20T15:05:40.579Z,4.77
2018-03-20T15:08:08.191Z,6.30
2018-03-20T15:10:35.828Z,5.77
2018-03-20T15:13:03.553Z,7.60
2018-03-20T15:15:31.155Z,8.83
2018-03-20T15:17:58.758Z,6.40
2018-03-20T15:20:26.379Z,6.57
2018-03-20T15:22:54.004Z,9.33
2018-03-20T15:25:21.644Z,11.57
2018-03-20T15:27:49.274Z,8.30
2018-03-20T15:30:16.858Z,9.73
2018-03-20T15:32:44.479Z,8.63
2018-03-20T15:35:12.107Z,10.23
2018-03-20T15:37:39.731Z,9.33
2018-03-20T15:40:07.331Z,10.47
2018-03-20T15:42:34.919Z,7.47
2018-03-20T15:45:02.532Z,8.47
2018-03-20T15:47:30.131Z,10.03
2018-03-20T15:49:57.722Z,9.60
2018-03-20T15:52:25.423Z,9.23
2018-03-20T15:54:53.019Z,11.07
2018-03-20T15:57:20.599Z,9.03
2018-03-20T15:59:48.211Z,7.23
2018-03-20T16:02:15.835Z,6.43
2018-03-20T16:04:43.458Z,10.77
2018-03-20T16:07:11.038Z,6.27
2018-03-20T16:09:38.627Z,7.57
2018-03-20T16:12:06.305Z,5.73
2018-03-20T16:14:33.943Z,10.07
2018-03-20T16:17:01.573Z,10.17
2018-03-20T16:19:29.249Z,8.10
2018-03-20T16:21:56.912Z,7.73
2018-03-20T16:24:24.499Z,7.03
2018-03-20T16:26:53.074Z,8.07
2018-03-20T16:29:20.702Z,8.07
2018-03-20T16:31:48.303Z,9.23
2018-03-20T16:34:15.955Z,15.17
2018-03-20T16:36:43.568Z,41.03
2018-03-20T16:39:11.155Z,23.03
2018-03-20T16:41:38.795Z,27.77
2018-03-20T16:44:06.391Z,16.70
2018-03-20T16:46:34.027Z,14.63
2018-03-20T16:49:01.684Z,10.73
2018-03-20T16:51:29.318Z,18.30
2018-03-20T16:53:56.950Z,22.10
2018-03-20T16:56:24.547Z,14.23
2018-03-20T16:58:52.163Z,12.97
2018-03-20T17:01:19.795Z,19.00
2018-03-20T17:03:47.379Z,12.33
2018-03-20T17:06:15.023Z,15.00
2018-03-20T17:08:42.656Z,14.50
2018-03-20T17:11:10.272Z,15.93
2018-03-20T17:13:37.876Z,14.13
2018-03-20T17:16:05.579Z,15.00
2018-03-20T17:18:33.238Z,21.97
2018-03-20T17:21:00.843Z,26.03
2018-03-20T17:23:28.445Z,29.57
2018-03-20T17:25:56.082Z,28.27
2018-03-20T17:28:24.063Z,25.07
2018-03-20T17:30:51.775Z,24.20
2018-03-20T17:33:19.411Z,31.27
2018-03-20T17:35:47.027Z,29.03
2018-03-20T17:38:14.639Z,32.97
2018-03-20T17:40:42.280Z,34.03
2018-03-20T17:43:09.982Z,26.40
2018-03-20T17:45:38.355Z,27.60
2018-03-20T17:48:05.991Z,23.67
2018-03-20T17:50:33.615Z,23.70
2018-03-20T17:53:01.331Z,24.63
2018-03-20T17:55:28.927Z,31.20
2018-03-20T17:57:56.531Z,34.80
2018-03-20T18:00:24.221Z,33.40
2018-03-20T18:02:51.826Z,32.40
2018-03-20T18:05:19.431Z,21.40
2018-03-20T18:07:47.067Z,25.67
2018-03-20T18:10:14.671Z,24.07
2018-03-20T18:12:42.277Z,19.17
2018-03-20T18:15:09.890Z,17.27
2018-03-20T18:17:37.507Z,29.00
2018-03-20T18:20:05.150Z,32.03
2018-03-20T18:22:32.760Z,36.47
2018-03-20T18:25:00.346Z,34.63
2018-03-20T18:27:27.995Z,28.20
2018-03-20T18:29:55.675Z,27.37
2018-03-20T18:32:23.426Z,35.97
2018-03-20T18:34:51.122Z,66.93
2018-03-20T18:37:18.827Z,51.17
2018-03-20T18:39:46.451Z,38.07
2018-03-20T18:42:14.167Z,38.30
2018-03-20T18:44:41.817Z,38.10
2018-03-20T18:47:09.437Z,30.43
2018-03-20T18:49:37.149Z,31.53
2018-03-20T18:52:04.848Z,38.20
2018-03-20T18:54:32.465Z,27.97
2018-03-20T18:57:00.084Z,27.53
2018-03-20T18:59:27.705Z,28.37
2018-03-20T19:01:55.366Z,27.43
2018-03-20T19:04:22.996Z,26.53
2018-03-20T19:06:50.702Z,22.53
2018-03-20T19:09:18.355Z,23.77
2018-03-20T19:11:46.071Z,21.90
2018-03-20T19:14:13.970Z,39.30
2018-03-20T19:16:41.715Z,25.70
2018-03-20T19:19:09.348Z,26.33
2018-03-20T19:21:37.070Z,24.13
2018-03-20T19:24:04.739Z,23.90
2018-03-20T19:26:32.421Z,21.67
2018-03-20T19:29:00.031Z,19.53
2018-03-20T19:31:27.726Z,18.03
2018-03-20T19:33:55.473Z,19.77
2018-03-20T19:36:23.111Z,16.73
2018-03-20T19:38:50.712Z,16.37
2018-03-20T19:41:19.325Z,21.47
2018-03-20T19:43:46.923Z,16.80
2018-03-20T19:46:14.546Z,18.60
2018-03-20T19:48:42.195Z,16.77
2018-03-20T19:51:09.838Z,18.67
2018-03-20T19:53:37.516Z,14.33
2018-03-20T19:56:05.202Z,13.93
2018-03-20T19:58:32.859Z,16.20
2018-03-20T20:01:00.464Z,17.90
2018-03-20T20:03:28.126Z,14.70
2018-03-20T20:05:55.803Z,14.77
2018-03-20T20:08:23.411Z,13.57
2018-03-20T20:10:51.007Z,14.20
2018-03-20T20:13:18.631Z,13.57
2018-03-20T20:15:46.326Z,13.57
2018-03-20T20:18:13.973Z,15.33
2018-03-20T20:20:41.785Z,17.23
2018-03-20T20:23:09.444Z,15.60
2018-03-20T20:25:37.076Z,16.53
2018-03-20T20:28:04.696Z,15.70
2018-03-20T20:30:33.106Z,18.67
2018-03-20T20:33:00.968Z,15.20
2018-03-20T20:35:28.603Z,16.93
2018-03-20T20:37:56.222Z,21.13
2018-03-20T20:40:23.848Z,18.23
2018-03-20T20:42:51.487Z,18.27
2018-03-20T20:45:19.167Z,17.20
2018-03-20T20:47:46.821Z,14.50
2018-03-20T20:50:14.446Z,15.33
2018-03-20T20:52:42.041Z,14.83
2018-03-20T20:55:09.696Z,15.27
2018-03-20T20:57:37.372Z,16.87
2018-03-20T21:00:04.943Z,19.73
2018-03-20T21:02:32.602Z,16.47
2018-03-20T21:05:00.223Z,16.17
2018-03-20T21:07:27.806Z,17.70
2018-03-20T21:09:55.441Z,16.33
2018-03-20T21:12:23.030Z,18.60
2018-03-20T21:14:50.618Z,33.70
2018-03-20T21:17:18.282Z,23.93
2018-03-20T21:19:45.898Z,20.13
2018-03-20T21:22:13.491Z,18.47
2018-03-20T21:24:41.126Z,20.03
2018-03-20T21:27:08.739Z,27.73
2018-03-20T21:29:36.342Z,26.03
2018-03-20T21:32:04.015Z,20.17
2018-03-20T21:34:31.624Z,20.43
2018-03-20T21:36:59.235Z,18.17
2018-03-20T21:39:26.857Z,23.60
2018-03-20T21:41:54.463Z,25.93
2018-03-20T21:44:22.067Z,25.13
2018-03-20T21:46:49.712Z,23.60
2018-03-20T21:49:17.319Z,22.20
2018-03-20T21:51:44.930Z,22.90
2018-03-20T21:54:12.531Z,19.53
2018-03-20T21:56:40.126Z,19.23
2018-03-20T21:59:07.767Z,17.70
2018-03-20T22:01:35.361Z,19.60
2018-03-20T22:04:02.946Z,19.30
2018-03-20T22:06:30.631Z,17.97
2018-03-20T22:08:58.235Z,18.47
2018-03-20T22:11:25.855Z,17.30
2018-03-20T22:13:53.451Z,18.50
2018-03-20T22:16:21.074Z,19.83
2018-03-20T22:18:48.763Z,14.87
2018-03-20T22:21:16.408Z,14.20
2018-03-20T22:23:44.033Z,15.97
2018-03-20T22:26:11.664Z,16.83
2018-03-20T22:28:39.327Z,13.50
2018-03-20T22:31:06.981Z,14.17
2018-03-20T22:33:34.575Z,15.40
2018-03-20T22:36:02.207Z,14.77
2018-03-20T22:38:29.811Z,13.67
2018-03-20T22:40:57.415Z,14.97
2018-03-20T22:43:25.015Z,16.60
2018-03-20T22:45:52.596Z,14.53
2018-03-20T22:48:20.223Z,12.70
2018-03-20T22:50:47.922Z,13.63
2018-03-20T22:53:15.562Z,13.00
2018-03-20T22:55:43.294Z,13.53
2018-03-20T22:58:10.863Z,15.77
2018-03-20T23:00:38.568Z,15.43
2018-03-20T23:03:06.203Z,13.57
2018-03-20T23:05:33.789Z,15.03
2018-03-20T23:08:01.619Z,14.67
2018-03-20T23:10:29.264Z,13.70
2018-03-20T23:12:56.855Z,13.50
2018-03-20T23:15:24.472Z,12.70
2018-03-20T23:17:53.517Z,12.87
2018-03-20T23:20:21.666Z,13.30
2018-03-20T23:22:50.375Z,12.40
2018-03-20T23:25:18.108Z,15.17
2018-03-20T23:27:45.764Z,13.90
2018-03-20T23:30:13.430Z,11.90
2018-03-20T23:32:41.016Z,11.93
2018-03-20T23:35:08.666Z,12.57
2018-03-20T23:37:36.328Z,14.00
2018-03-20T23:40:04.718Z,17.07
2018-03-20T23:42:32.335Z,18.40
2018-03-20T23:45:00.019Z,16.03
2018-03-20T23:47:27.603Z,17.30
2018-03-20T23:49:55.247Z,21.40
2018-03-20T23:52:22.867Z,16.20
2018-03-20T23:54:50.474Z,17.73
2018-03-20T23:57:18.103Z,16.30
2018-03-20T23:59:45.727Z,29.23
